createdAt,value
2019-04-12T00:00:16.288Z,4.10
2019-04-12T00:01:16.430Z,4.10
2019-04-12T00:02:16.551Z,4.00
2019-04-12T00:03:16.665Z,4.10
2019-04-12T00:04:16.787Z,4.10
2019-04-12T00:05:16.923Z,4.00
2019-04-12T00:06:17.052Z,4.10
2019-04-12T00:07:17.174Z,4.40
2019-04-12T00:08:17.308Z,4.20
2019-04-12T00:09:17.435Z,4.20
2019-04-12T00:10:17.558Z,4.20
2019-04-12T00:11:17.680Z,3.80
2019-04-12T00:12:17.802Z,3.90
2019-04-12T00:13:17.921Z,4.10
2019-04-12T00:14:18.040Z,4.40
2019-04-12T00:15:18.165Z,3.90
2019-04-12T00:16:18.293Z,4.30
2019-04-12T00:17:18.407Z,4.00
2019-04-12T00:18:18.534Z,4.30
2019-04-12T00:19:18.656Z,3.90
2019-04-12T00:20:18.784Z,3.90
2019-04-12T00:21:18.901Z,4.10
2019-04-12T00:22:19.022Z,4.10
2019-04-12T00:23:19.148Z,4.20
2019-04-12T00:24:19.267Z,4.50
2019-04-12T00:25:19.391Z,4.30
2019-04-12T00:26:19.529Z,4.10
2019-04-12T00:27:19.807Z,4.00
2019-04-12T00:28:20.312Z,3.90
2019-04-12T00:29:20.423Z,3.90
2019-04-12T00:30:21.400Z,3.90
2019-04-12T00:31:22.969Z,3.90
2019-04-12T00:32:21.487Z,4.00
2019-04-12T00:33:22.737Z,3.80
2019-04-12T00:34:22.830Z,3.90
2019-04-12T00:35:21.453Z,3.90
2019-04-12T00:36:22.479Z,3.90
2019-04-12T00:37:24.045Z,3.80
2019-04-12T00:38:21.025Z,3.60
2019-04-12T00:39:21.182Z,4.10
2019-04-12T00:40:21.291Z,4.20
2019-04-12T00:41:21.418Z,3.70
2019-04-12T00:42:21.547Z,4.00
2019-04-12T00:43:21.723Z,3.80
2019-04-12T00:44:21.817Z,3.60
2019-04-12T00:45:21.939Z,4.10
2019-04-12T00:46:22.080Z,4.30
2019-04-12T00:47:22.201Z,3.90
2019-04-12T00:48:22.325Z,4.30
2019-04-12T00:49:22.445Z,3.60
2019-04-12T00:50:22.620Z,3.80
2019-04-12T00:51:22.701Z,4.00
2019-04-12T00:52:22.840Z,4.00
2019-04-12T00:53:22.956Z,4.70
2019-04-12T00:54:23.086Z,4.10
2019-04-12T00:55:23.210Z,4.10
2019-04-12T00:56:23.360Z,4.20
2019-04-12T00:57:23.489Z,4.20
2019-04-12T00:58:23.606Z,3.90
2019-04-12T00:59:23.769Z,4.00
2019-04-12T01:00:23.890Z,4.00
2019-04-12T01:01:24.014Z,3.60
2019-04-12T01:02:24.131Z,3.80
2019-04-12T01:03:24.263Z,4.10
2019-04-12T01:04:24.384Z,3.90
2019-04-12T01:05:24.537Z,3.90
2019-04-12T01:06:24.652Z,3.90
2019-04-12T01:07:24.784Z,4.20
2019-04-12T01:08:24.913Z,3.90
2019-04-12T01:09:25.029Z,4.30
2019-04-12T01:10:25.155Z,4.10
2019-04-12T01:11:25.735Z,4.40
2019-04-12T01:12:26.381Z,4.00
2019-04-12T01:13:27.197Z,4.30
2019-04-12T01:14:28.285Z,4.00
2019-04-12T01:15:27.044Z,4.10
2019-04-12T01:16:29.952Z,3.90
2019-04-12T01:17:26.091Z,4.30
2019-04-12T01:18:26.199Z,4.00
2019-04-12T01:19:26.324Z,4.30
2019-04-12T01:20:26.448Z,3.90
2019-04-12T01:21:26.571Z,3.70
2019-04-12T01:22:26.739Z,4.40
2019-04-12T01:23:26.866Z,4.20
2019-04-12T01:24:26.995Z,4.40
2019-04-12T01:25:27.122Z,4.30
2019-04-12T01:26:27.242Z,4.10
2019-04-12T01:27:27.371Z,4.20
2019-04-12T01:28:27.499Z,4.00
2019-04-12T01:29:27.628Z,4.40
2019-04-12T01:30:27.756Z,4.50
2019-04-12T01:31:27.889Z,4.20
2019-04-12T01:32:28.020Z,4.50
2019-04-12T01:33:28.140Z,4.50
2019-04-12T01:34:28.299Z,4.50
2019-04-12T01:35:28.421Z,4.40
2019-04-12T01:36:28.548Z,4.60
2019-04-12T01:37:28.671Z,4.80
2019-04-12T01:38:28.816Z,4.90
2019-04-12T01:39:28.945Z,4.40
2019-04-12T01:40:29.076Z,4.60
2019-04-12T01:41:29.198Z,4.80
2019-04-12T01:42:29.342Z,4.50
2019-04-12T01:43:29.465Z,4.90
2019-04-12T01:44:29.615Z,4.90
2019-04-12T01:45:29.752Z,4.90
2019-04-12T01:46:29.871Z,5.00
2019-04-12T01:47:30.000Z,4.70
2019-04-12T01:48:30.133Z,4.90
2019-04-12T01:49:30.254Z,4.70
2019-04-12T01:50:30.429Z,5.00
2019-04-12T01:51:30.560Z,5.00
2019-04-12T01:52:30.669Z,5.10
2019-04-12T01:53:30.836Z,5.10
2019-04-12T01:54:30.950Z,5.00
2019-04-12T01:55:31.075Z,5.20
2019-04-12T01:56:31.203Z,5.00
2019-04-12T01:57:31.328Z,5.10
2019-04-12T01:58:31.449Z,4.90
2019-04-12T01:59:31.574Z,5.00
2019-04-12T02:00:31.699Z,5.00
2019-04-12T02:01:31.857Z,5.00
2019-04-12T02:02:31.970Z,4.80
2019-04-12T02:03:32.094Z,5.10
2019-04-12T02:04:32.220Z,5.40
2019-04-12T02:05:32.345Z,5.00
2019-04-12T02:06:32.467Z,5.10
2019-04-12T02:07:32.602Z,4.90
2019-04-12T02:08:32.717Z,5.00
2019-04-12T02:09:32.840Z,5.00
2019-04-12T02:10:32.960Z,5.50
2019-04-12T02:11:33.085Z,4.90
2019-04-12T02:12:33.246Z,4.90
2019-04-12T02:13:33.369Z,5.30
2019-04-12T02:14:33.483Z,5.20
2019-04-12T02:15:33.610Z,5.50
2019-04-12T02:16:33.767Z,5.00
2019-04-12T02:17:33.877Z,5.40
2019-04-12T02:18:34.009Z,5.50
2019-04-12T02:19:34.165Z,5.40
2019-04-12T02:20:34.281Z,5.70
2019-04-12T02:21:34.431Z,6.20
2019-04-12T02:22:34.561Z,6.10
2019-04-12T02:23:34.680Z,6.20
2019-04-12T02:24:34.805Z,5.70
2019-04-12T02:25:34.952Z,5.80
2019-04-12T02:26:35.080Z,5.50
2019-04-12T02:27:35.206Z,5.50
2019-04-12T02:28:35.346Z,5.80
2019-04-12T02:29:35.469Z,5.30
2019-04-12T02:30:35.591Z,5.10
2019-04-12T02:31:35.746Z,5.30
2019-04-12T02:32:35.861Z,5.80
2019-04-12T02:33:35.989Z,5.40
2019-04-12T02:34:36.119Z,5.40
2019-04-12T02:35:36.255Z,6.00
2019-04-12T02:36:36.363Z,5.20
2019-04-12T02:37:36.494Z,5.60
2019-04-12T02:38:36.612Z,5.30
2019-04-12T02:39:36.728Z,5.50
2019-04-12T02:40:36.853Z,5.50
2019-04-12T02:41:36.976Z,5.90
2019-04-12T02:42:37.135Z,5.80
2019-04-12T02:43:37.255Z,5.90
2019-04-12T02:44:37.372Z,5.90
2019-04-12T02:45:37.509Z,5.60
2019-04-12T02:46:37.644Z,5.60
2019-04-12T02:47:37.768Z,5.60
2019-04-12T02:48:37.899Z,5.70
2019-04-12T02:49:38.030Z,5.80
2019-04-12T02:50:38.164Z,5.90
2019-04-12T02:51:38.289Z,5.90
2019-04-12T02:52:38.417Z,5.90
2019-04-12T02:53:38.543Z,6.20
2019-04-12T02:54:38.695Z,6.20
2019-04-12T02:55:38.914Z,6.10
2019-04-12T02:56:38.954Z,5.70
2019-04-12T02:57:39.070Z,5.80
2019-04-12T02:58:39.205Z,6.00
2019-04-12T02:59:39.333Z,5.80
2019-04-12T03:00:39.457Z,5.70
2019-04-12T03:01:39.756Z,5.90
2019-04-12T03:02:39.721Z,5.50
2019-04-12T03:03:39.844Z,5.60
2019-04-12T03:04:39.976Z,5.30
2019-04-12T03:05:40.102Z,5.60
2019-04-12T03:06:40.233Z,6.20
2019-04-12T03:07:40.360Z,6.40
2019-04-12T03:08:40.511Z,6.00
2019-04-12T03:09:40.666Z,6.00
2019-04-12T03:10:40.786Z,6.30
2019-04-12T03:11:40.915Z,5.90
2019-04-12T03:12:41.043Z,5.90
2019-04-12T03:13:41.164Z,5.80
2019-04-12T03:14:41.296Z,6.10
2019-04-12T03:15:41.442Z,6.00
2019-04-12T03:16:41.579Z,5.80
2019-04-12T03:17:41.701Z,6.10
2019-04-12T03:18:41.826Z,6.00
2019-04-12T03:19:41.946Z,5.60
2019-04-12T03:20:42.087Z,5.90
2019-04-12T03:21:42.285Z,5.30
2019-04-12T03:22:42.307Z,5.90
2019-04-12T03:23:42.484Z,5.60
2019-04-12T03:24:42.560Z,5.40
2019-04-12T03:25:52.776Z,5.80
2019-04-12T03:26:42.846Z,5.90
2019-04-12T03:27:42.954Z,5.40
2019-04-12T03:28:43.117Z,5.50
2019-04-12T03:29:43.209Z,5.60
2019-04-12T03:30:43.342Z,5.80
2019-04-12T03:31:43.469Z,5.70
2019-04-12T03:32:43.638Z,5.50
2019-04-12T03:33:43.858Z,5.10
2019-04-12T03:34:43.856Z,5.10
2019-04-12T03:35:44.296Z,5.10
2019-04-12T03:36:44.144Z,5.10
2019-04-12T03:37:44.256Z,5.60
2019-04-12T03:38:44.380Z,5.40
2019-04-12T03:39:44.529Z,4.90
2019-04-12T03:40:44.687Z,5.20
2019-04-12T03:41:44.811Z,5.00
2019-04-12T03:42:44.947Z,5.60
2019-04-12T03:43:45.065Z,5.40
2019-04-12T03:44:45.205Z,5.20
2019-04-12T03:45:45.321Z,5.50
2019-04-12T03:46:45.456Z,5.80
2019-04-12T03:47:45.578Z,5.20
2019-04-12T03:48:45.733Z,5.00
2019-04-12T03:49:45.871Z,5.50
2019-04-12T03:50:45.988Z,5.30
2019-04-12T03:51:46.119Z,5.00
2019-04-12T03:52:46.254Z,5.60
2019-04-12T03:53:46.372Z,5.10
2019-04-12T03:54:46.496Z,5.10
2019-04-12T03:55:46.621Z,5.10
2019-04-12T03:56:46.777Z,5.20
2019-04-12T03:57:46.896Z,4.90
2019-04-12T03:58:47.011Z,5.10
2019-04-12T03:59:47.155Z,5.30
2019-04-12T04:00:47.283Z,4.70
2019-04-12T04:01:47.407Z,4.90
2019-04-12T04:02:47.535Z,5.00
2019-04-12T04:03:47.646Z,5.20
2019-04-12T04:04:47.777Z,5.30
2019-04-12T04:05:47.929Z,5.30
2019-04-12T04:06:48.071Z,5.00
2019-04-12T04:07:48.178Z,5.10
2019-04-12T04:08:48.330Z,5.10
2019-04-12T04:09:48.449Z,5.40
2019-04-12T04:10:48.575Z,5.50
2019-04-12T04:11:48.694Z,5.00
2019-04-12T04:12:48.834Z,5.40
2019-04-12T04:13:48.961Z,5.10
2019-04-12T04:14:49.090Z,5.30
2019-04-12T04:15:49.213Z,5.20
2019-04-12T04:16:49.356Z,5.20
2019-04-12T04:17:49.473Z,5.20
2019-04-12T04:18:49.598Z,4.90
2019-04-12T04:19:49.733Z,5.30
2019-04-12T04:20:49.871Z,5.10
2019-04-12T04:21:49.986Z,5.50
2019-04-12T04:22:50.107Z,5.10
2019-04-12T04:23:50.266Z,5.20
2019-04-12T04:24:50.491Z,5.10
2019-04-12T04:25:50.493Z,5.30
2019-04-12T04:26:50.624Z,5.00
2019-04-12T04:27:50.780Z,4.70
2019-04-12T04:28:50.924Z,5.30
2019-04-12T04:29:51.059Z,5.00
2019-04-12T04:30:51.179Z,4.90
2019-04-12T04:31:54.355Z,5.30
2019-04-12T04:32:51.444Z,5.10
2019-04-12T04:33:51.585Z,4.70
2019-04-12T04:34:51.695Z,5.20
2019-04-12T04:35:51.828Z,6.60
2019-04-12T04:36:52.024Z,6.70
2019-04-12T04:37:52.155Z,11.50
2019-04-12T04:38:52.253Z,11.30
2019-04-12T04:39:52.393Z,9.80
2019-04-12T04:40:52.521Z,8.60
2019-04-12T04:41:52.640Z,6.30
2019-04-12T04:42:52.805Z,6.40
2019-04-12T04:43:52.922Z,5.80
2019-04-12T04:44:53.042Z,5.40
2019-04-12T04:45:53.177Z,5.20
2019-04-12T04:46:53.298Z,4.70
2019-04-12T04:47:53.421Z,4.60
2019-04-12T04:48:53.548Z,4.80
2019-04-12T04:49:53.675Z,4.60
2019-04-12T04:50:53.797Z,5.00
2019-04-12T04:51:53.963Z,4.30
2019-04-12T04:52:54.081Z,4.80
2019-04-12T04:53:54.200Z,4.80
2019-04-12T04:54:54.321Z,4.30
2019-04-12T04:55:54.467Z,4.70
2019-04-12T04:56:54.589Z,4.30
2019-04-12T04:57:54.708Z,4.50
2019-04-12T04:58:54.835Z,4.90
2019-04-12T04:59:55.010Z,5.30
2019-04-12T05:00:55.246Z,5.70
2019-04-12T05:01:55.244Z,5.60
2019-04-12T05:02:55.358Z,5.70
2019-04-12T05:03:55.482Z,5.40
2019-04-12T05:04:55.608Z,5.20
2019-04-12T05:05:55.728Z,5.20
2019-04-12T05:06:55.855Z,5.10
2019-04-12T05:07:55.979Z,5.30
2019-04-12T05:08:56.100Z,4.90
2019-04-12T05:09:56.227Z,5.90
2019-04-12T05:10:56.346Z,6.30
2019-04-12T05:11:56.468Z,5.40
2019-04-12T05:12:56.594Z,5.30
2019-04-12T05:13:56.762Z,4.70
2019-04-12T05:14:56.865Z,4.80
2019-04-12T05:15:56.996Z,4.80
2019-04-12T05:16:57.126Z,4.30
2019-04-12T05:17:57.248Z,4.40
2019-04-12T05:18:57.367Z,4.70
2019-04-12T05:19:57.505Z,4.30
2019-04-12T05:20:57.625Z,4.50
2019-04-12T05:21:57.761Z,4.20
2019-04-12T05:22:57.884Z,4.00
2019-04-12T05:23:58.007Z,4.00
2019-04-12T05:24:58.136Z,4.40
2019-04-12T05:25:58.264Z,4.40
2019-04-12T05:26:58.396Z,4.10
2019-04-12T05:27:58.517Z,4.70
2019-04-12T05:28:58.650Z,6.70
2019-04-12T05:29:58.773Z,6.80
2019-04-12T05:30:58.897Z,6.30
2019-04-12T05:31:59.029Z,5.30
2019-04-12T05:32:59.149Z,4.80
2019-04-12T05:33:59.293Z,5.00
2019-04-12T05:34:59.393Z,4.70
2019-04-12T05:35:59.529Z,5.70
2019-04-12T05:37:09.560Z,5.60
2019-04-12T05:37:59.808Z,5.50
2019-04-12T05:38:59.943Z,5.30
2019-04-12T05:40:00.079Z,4.90
2019-04-12T05:41:00.214Z,4.80
2019-04-12T05:42:00.369Z,4.20
2019-04-12T05:43:00.502Z,4.80
2019-04-12T05:44:00.621Z,5.20
2019-04-12T05:45:00.747Z,5.90
2019-04-12T05:46:00.879Z,5.70
2019-04-12T05:47:00.998Z,5.50
2019-04-12T05:48:01.127Z,5.90
2019-04-12T05:49:01.255Z,6.80
2019-04-12T05:50:01.379Z,6.20
2019-04-12T05:51:01.503Z,5.20
2019-04-12T05:52:01.632Z,5.40
2019-04-12T05:53:01.800Z,5.10
2019-04-12T05:54:02.384Z,5.40
2019-04-12T05:55:04.380Z,5.60
2019-04-12T05:56:02.156Z,5.10
2019-04-12T05:57:02.286Z,6.00
2019-04-12T05:58:02.417Z,6.40
2019-04-12T05:59:02.542Z,5.00
2019-04-12T06:00:02.679Z,5.00
2019-04-12T06:01:02.808Z,4.20
2019-04-12T06:02:02.959Z,4.30
2019-04-12T06:03:03.081Z,4.60
2019-04-12T06:04:03.207Z,4.80
2019-04-12T06:05:03.338Z,5.10
2019-04-12T06:06:03.503Z,4.50
2019-04-12T06:07:03.606Z,4.40
2019-04-12T06:08:03.721Z,4.80
2019-04-12T06:09:03.847Z,4.40
2019-04-12T06:10:04.017Z,4.70
2019-04-12T06:11:04.127Z,5.00
2019-04-12T06:12:04.263Z,5.00
2019-04-12T06:13:05.441Z,5.50
2019-04-12T06:14:04.509Z,4.90
2019-04-12T06:15:04.741Z,5.40
2019-04-12T06:16:04.749Z,4.40
2019-04-12T06:17:04.874Z,4.80
2019-04-12T06:18:05.123Z,5.00
2019-04-12T06:19:05.169Z,5.10
2019-04-12T06:20:05.294Z,5.50
2019-04-12T06:21:05.424Z,6.60
2019-04-12T06:22:05.564Z,7.30
2019-04-12T06:23:05.690Z,6.70
2019-04-12T06:24:05.814Z,7.90
2019-04-12T06:25:05.995Z,5.90
2019-04-12T06:26:06.118Z,7.20
2019-04-12T06:27:10.262Z,6.00
2019-04-12T06:28:06.372Z,6.30
2019-04-12T06:29:06.530Z,6.30
2019-04-12T06:30:06.651Z,7.30
2019-04-12T06:31:06.772Z,7.00
2019-04-12T06:32:06.905Z,6.40
2019-04-12T06:33:07.047Z,6.80
2019-04-12T06:34:07.171Z,6.10
2019-04-12T06:35:07.310Z,5.70
2019-04-12T06:36:07.423Z,4.90
2019-04-12T06:37:07.599Z,5.00
2019-04-12T06:38:07.766Z,5.50
2019-04-12T06:39:07.894Z,5.00
2019-04-12T06:40:08.021Z,5.10
2019-04-12T06:41:08.157Z,5.80
2019-04-12T06:42:08.285Z,5.90
2019-04-12T06:43:08.424Z,5.70
2019-04-12T06:44:08.537Z,6.30
2019-04-12T06:45:08.675Z,10.40
2019-04-12T06:46:08.798Z,9.40
2019-04-12T06:47:09.030Z,11.20
2019-04-12T06:48:09.168Z,10.60
2019-04-12T06:49:09.158Z,19.40
2019-04-12T06:50:09.287Z,10.90
2019-04-12T06:51:09.457Z,6.90
2019-04-12T06:52:09.597Z,8.00
2019-04-12T06:53:09.725Z,6.90
2019-04-12T06:54:09.863Z,13.20
2019-04-12T06:55:10.001Z,7.90
2019-04-12T06:56:10.118Z,6.00
2019-04-12T06:57:21.677Z,6.40
2019-04-12T06:58:10.393Z,10.40
2019-04-12T06:59:10.517Z,12.50
2019-04-12T07:00:10.643Z,20.20
2019-04-12T07:01:10.806Z,18.10
2019-04-12T07:02:10.921Z,13.70
2019-04-12T07:03:11.055Z,13.90
2019-04-12T07:04:11.197Z,17.40
2019-04-12T07:05:11.306Z,16.20
2019-04-12T07:06:11.449Z,7.90
2019-04-12T07:07:11.561Z,26.00
2019-04-12T07:08:11.777Z,20.10
2019-04-12T07:09:11.822Z,12.70
2019-04-12T07:10:11.947Z,20.70
2019-04-12T07:11:12.066Z,10.70
2019-04-12T07:12:12.227Z,7.90
2019-04-12T07:13:12.394Z,10.50
2019-04-12T07:14:12.517Z,12.20
2019-04-12T07:15:12.638Z,17.90
2019-04-12T07:16:12.805Z,14.60
2019-04-12T07:17:12.940Z,12.60
2019-04-12T07:18:13.064Z,15.10
2019-04-12T07:19:13.194Z,15.20
2019-04-12T07:20:13.329Z,11.60
2019-04-12T07:21:13.462Z,14.00
2019-04-12T07:22:13.581Z,11.70
2019-04-12T07:23:13.716Z,7.00
2019-04-12T07:24:13.868Z,6.00
2019-04-12T07:25:13.988Z,5.60
2019-04-12T07:26:14.109Z,6.80
2019-04-12T07:27:14.240Z,6.30
2019-04-12T07:28:14.404Z,6.10
2019-04-12T07:29:14.515Z,6.10
2019-04-12T07:30:14.639Z,6.30
2019-04-12T07:31:14.773Z,5.80
2019-04-12T07:32:14.945Z,6.10
2019-04-12T07:33:15.073Z,6.40
2019-04-12T07:34:15.184Z,6.90
2019-04-12T07:35:15.316Z,6.40
2019-04-12T07:36:15.449Z,5.30
2019-04-12T07:37:15.627Z,6.10
2019-04-12T07:38:15.759Z,6.60
2019-04-12T07:39:15.879Z,6.80
2019-04-12T07:40:16.055Z,6.40
2019-04-12T07:41:16.179Z,7.30
2019-04-12T07:42:16.299Z,6.00
2019-04-12T07:43:16.422Z,7.00
2019-04-12T07:44:16.546Z,6.70
2019-04-12T07:45:18.765Z,6.70
2019-04-12T07:46:16.804Z,7.00
2019-04-12T07:47:16.935Z,7.30
2019-04-12T07:48:17.062Z,6.80
2019-04-12T07:49:17.195Z,6.90
2019-04-12T07:50:17.312Z,6.90
2019-04-12T07:51:17.442Z,6.20
2019-04-12T07:52:17.573Z,6.00
2019-04-12T07:53:17.760Z,6.70
2019-04-12T07:54:17.841Z,7.10
2019-04-12T07:55:17.962Z,8.60
2019-04-12T07:56:18.095Z,8.80
2019-04-12T07:57:18.248Z,11.60
2019-04-12T07:58:18.367Z,8.90
2019-04-12T07:59:18.508Z,7.30
2019-04-12T08:00:18.633Z,10.70
2019-04-12T08:01:18.793Z,7.10
2019-04-12T08:02:18.982Z,8.30
2019-04-12T08:03:19.117Z,7.60
2019-04-12T08:04:19.225Z,9.40
2019-04-12T08:05:19.354Z,7.20
2019-04-12T08:06:19.475Z,7.70
2019-04-12T08:07:19.606Z,7.70
2019-04-12T08:08:19.743Z,7.40
2019-04-12T08:09:19.884Z,7.70
2019-04-12T08:10:20.003Z,6.40
2019-04-12T08:11:20.122Z,6.70
2019-04-12T08:12:20.257Z,7.50
2019-04-12T08:13:20.397Z,6.70
2019-04-12T08:14:20.523Z,7.30
2019-04-12T08:15:20.656Z,6.70
2019-04-12T08:16:20.775Z,6.50
2019-04-12T08:17:20.919Z,7.10
2019-04-12T08:18:21.051Z,6.70
2019-04-12T08:19:21.190Z,6.90
2019-04-12T08:20:21.324Z,6.60
2019-04-12T08:21:21.491Z,7.30
2019-04-12T08:22:21.601Z,6.70
2019-04-12T08:23:21.736Z,6.70
2019-04-12T08:24:21.895Z,6.40
2019-04-12T08:25:22.025Z,8.90
2019-04-12T08:26:22.150Z,8.70
2019-04-12T08:27:22.321Z,15.90
2019-04-12T08:28:22.439Z,16.70
2019-04-12T08:29:22.559Z,17.20
2019-04-12T08:30:22.687Z,7.90
2019-04-12T08:31:22.826Z,7.20
2019-04-12T08:32:22.945Z,8.10
2019-04-12T08:33:23.068Z,6.70
2019-04-12T08:34:23.271Z,6.30
2019-04-12T08:35:23.262Z,6.80
2019-04-12T08:36:23.389Z,6.40
2019-04-12T08:37:23.519Z,6.70
2019-04-12T08:38:23.662Z,6.80
2019-04-12T08:39:23.789Z,6.30
2019-04-12T08:40:23.919Z,6.30
2019-04-12T08:41:24.050Z,6.40
2019-04-12T08:42:24.176Z,6.30
2019-04-12T08:43:24.314Z,6.30
2019-04-12T08:44:24.437Z,6.30
2019-04-12T08:45:24.563Z,6.50
2019-04-12T08:46:24.685Z,6.30
2019-04-12T08:47:24.810Z,6.80
2019-04-12T08:48:24.950Z,6.40
2019-04-12T08:49:25.070Z,6.40
2019-04-12T08:50:25.215Z,6.50
2019-04-12T08:51:25.342Z,6.10
2019-04-12T08:52:25.491Z,6.40
2019-04-12T08:53:25.582Z,6.50
2019-04-12T08:54:25.712Z,6.60
2019-04-12T08:55:25.869Z,6.70
2019-04-12T08:56:26.016Z,6.50
2019-04-12T08:57:26.112Z,6.50
2019-04-12T08:58:26.287Z,6.60
2019-04-12T08:59:26.426Z,6.30
2019-04-12T09:00:26.564Z,6.50
2019-04-12T09:01:26.688Z,6.50
2019-04-12T09:02:26.780Z,7.00
2019-04-12T09:03:26.909Z,6.60
2019-04-12T09:04:27.123Z,6.40
2019-04-12T09:05:33.165Z,6.80
2019-04-12T09:06:27.317Z,7.30
2019-04-12T09:07:27.486Z,7.10
2019-04-12T09:08:27.583Z,7.10
2019-04-12T09:09:27.737Z,7.50
2019-04-12T09:10:27.935Z,7.80
2019-04-12T09:11:27.931Z,7.00
2019-04-12T09:12:28.155Z,7.30
2019-04-12T09:13:28.214Z,7.00
2019-04-12T09:14:28.388Z,7.20
2019-04-12T09:15:28.500Z,7.10
2019-04-12T09:16:28.617Z,6.90
2019-04-12T09:17:28.711Z,7.40
2019-04-12T09:18:30.690Z,7.10
2019-04-12T09:19:29.072Z,7.20
2019-04-12T09:20:29.220Z,7.20
2019-04-12T09:21:29.243Z,7.40
2019-04-12T09:22:29.418Z,7.00
2019-04-12T09:23:29.540Z,6.90
2019-04-12T09:24:29.746Z,7.20
2019-04-12T09:25:29.912Z,6.90
2019-04-12T09:26:29.906Z,7.40
2019-04-12T09:27:30.041Z,7.00
2019-04-12T09:28:30.245Z,7.20
2019-04-12T09:29:30.311Z,7.40
2019-04-12T09:30:30.457Z,7.60
2019-04-12T09:31:30.635Z,7.20
2019-04-12T09:32:30.761Z,7.30
2019-04-12T09:33:31.037Z,7.60
2019-04-12T09:34:30.942Z,7.00
2019-04-12T09:35:31.070Z,7.80
2019-04-12T09:36:31.218Z,7.90
2019-04-12T09:37:31.341Z,7.90
2019-04-12T09:38:31.484Z,7.60
2019-04-12T09:39:31.604Z,7.50
2019-04-12T09:40:31.751Z,7.50
2019-04-12T09:41:31.866Z,7.60
2019-04-12T09:42:31.993Z,8.30
2019-04-12T09:43:32.120Z,8.80
2019-04-12T09:44:32.260Z,8.50
2019-04-12T09:45:32.468Z,7.70
2019-04-12T09:46:32.468Z,7.80
2019-04-12T09:47:32.599Z,7.40
2019-04-12T09:48:32.754Z,6.90
2019-04-12T09:49:32.867Z,7.90
2019-04-12T09:50:32.999Z,8.00
2019-04-12T09:51:33.129Z,8.30
2019-04-12T09:52:33.267Z,8.00
2019-04-12T09:53:33.388Z,7.70
2019-04-12T09:54:33.519Z,7.80
2019-04-12T09:55:33.643Z,7.60
2019-04-12T09:56:33.794Z,7.80
2019-04-12T09:57:33.978Z,7.70
2019-04-12T09:58:37.463Z,7.50
2019-04-12T09:59:34.236Z,7.30
2019-04-12T10:00:34.365Z,7.70
2019-04-12T10:01:34.495Z,7.60
2019-04-12T10:02:34.630Z,7.70
2019-04-12T10:03:34.754Z,8.10
2019-04-12T10:04:34.891Z,7.60
2019-04-12T10:05:35.016Z,7.50
2019-04-12T10:06:35.156Z,7.90
2019-04-12T10:07:35.280Z,7.20
2019-04-12T10:08:35.406Z,7.10
2019-04-12T10:09:35.536Z,7.60
2019-04-12T10:10:35.684Z,7.40
2019-04-12T10:11:35.921Z,7.70
2019-04-12T10:12:35.929Z,9.10
2019-04-12T10:13:36.048Z,15.20
2019-04-12T10:14:36.197Z,22.00
2019-04-12T10:15:36.325Z,12.00
2019-04-12T10:16:36.467Z,9.00
2019-04-12T10:17:36.573Z,7.70
2019-04-12T10:18:36.715Z,8.10
2019-04-12T10:19:36.864Z,8.20
2019-04-12T10:20:36.965Z,7.90
2019-04-12T10:21:37.096Z,8.10
2019-04-12T10:22:37.230Z,8.20
2019-04-12T10:23:37.370Z,8.50
2019-04-12T10:24:37.487Z,8.00
2019-04-12T10:25:37.626Z,7.90
2019-04-12T10:26:37.750Z,8.10
2019-04-12T10:27:37.905Z,8.50
2019-04-12T10:28:49.490Z,8.50
2019-04-12T10:29:38.192Z,8.60
2019-04-12T10:30:38.298Z,8.70
2019-04-12T10:31:38.439Z,8.00
2019-04-12T10:32:38.576Z,8.00
2019-04-12T10:33:38.697Z,8.00
2019-04-12T10:34:38.829Z,7.70
2019-04-12T10:35:38.957Z,8.00
2019-04-12T10:36:39.084Z,7.70
2019-04-12T10:37:39.294Z,7.60
2019-04-12T10:38:39.346Z,8.60
2019-04-12T10:39:39.471Z,8.20
2019-04-12T10:40:39.605Z,8.40
2019-04-12T10:41:39.735Z,8.60
2019-04-12T10:42:39.889Z,8.60
2019-04-12T10:43:39.995Z,8.30
2019-04-12T10:44:40.136Z,8.90
2019-04-12T10:45:40.253Z,9.00
2019-04-12T10:46:40.383Z,8.90
2019-04-12T10:47:40.506Z,9.20
2019-04-12T10:48:40.629Z,8.90
2019-04-12T10:49:40.749Z,9.00
2019-04-12T10:50:40.884Z,9.00
2019-04-12T10:51:41.011Z,9.00
2019-04-12T10:52:41.132Z,9.00
2019-04-12T10:53:41.253Z,9.00
2019-04-12T10:54:41.397Z,8.60
2019-04-12T10:55:41.524Z,8.60
2019-04-12T10:56:41.648Z,7.90
2019-04-12T10:57:41.779Z,7.60
2019-04-12T10:58:41.906Z,7.70
2019-04-12T10:59:42.041Z,7.70
2019-04-12T11:00:42.158Z,7.70
2019-04-12T11:01:42.308Z,8.10
2019-04-12T11:02:42.439Z,8.20
2019-04-12T11:03:42.590Z,7.60
2019-04-12T11:04:42.704Z,7.90
2019-04-12T11:05:42.824Z,8.50
2019-04-12T11:06:42.971Z,8.50
2019-04-12T11:07:43.095Z,8.70
2019-04-12T11:08:43.244Z,8.40
2019-04-12T11:09:43.362Z,8.60
2019-04-12T11:10:43.517Z,8.60
2019-04-12T11:11:43.621Z,8.00
2019-04-12T11:12:43.749Z,7.70
2019-04-12T11:13:43.887Z,8.50
2019-04-12T11:14:44.004Z,8.80
2019-04-12T11:15:44.132Z,7.90
2019-04-12T11:16:44.284Z,8.10
2019-04-12T11:17:44.399Z,8.00
2019-04-12T11:18:44.532Z,8.10
2019-04-12T11:19:44.660Z,8.50
2019-04-12T11:20:44.803Z,8.90
2019-04-12T11:21:44.924Z,7.80
2019-04-12T11:22:45.047Z,7.50
2019-04-12T11:23:45.169Z,7.20
2019-04-12T11:24:45.300Z,7.40
2019-04-12T11:25:45.428Z,7.30
2019-04-12T11:26:45.597Z,6.90
2019-04-12T11:27:45.709Z,7.30
2019-04-12T11:28:45.843Z,6.90
2019-04-12T11:29:45.977Z,7.40
2019-04-12T11:30:46.106Z,6.50
2019-04-12T11:31:46.224Z,7.20
2019-04-12T11:32:46.360Z,7.00
2019-04-12T11:33:46.481Z,7.00
2019-04-12T11:34:46.608Z,6.90
2019-04-12T11:35:46.738Z,7.10
2019-04-12T11:36:46.858Z,7.30
2019-04-12T11:37:46.989Z,7.30
2019-04-12T11:38:47.111Z,7.60
2019-04-12T11:39:47.246Z,6.80
2019-04-12T11:40:47.368Z,7.10
2019-04-12T11:41:47.504Z,7.20
2019-04-12T11:42:47.621Z,7.80
2019-04-12T11:43:47.755Z,7.70
2019-04-12T11:44:47.875Z,8.00
2019-04-12T11:45:47.994Z,8.10
2019-04-12T11:46:48.147Z,8.20
2019-04-12T11:47:48.322Z,8.60
2019-04-12T11:48:48.451Z,7.80
2019-04-12T11:49:48.580Z,7.40
2019-04-12T11:50:48.717Z,7.90
2019-04-12T11:51:48.840Z,7.70
2019-04-12T11:52:48.986Z,8.00
2019-04-12T11:53:49.086Z,8.00
2019-04-12T11:54:49.221Z,7.90
2019-04-12T11:55:49.348Z,8.00
2019-04-12T11:56:49.470Z,8.20
2019-04-12T11:57:49.600Z,8.50
2019-04-12T11:58:49.727Z,8.10
2019-04-12T11:59:49.841Z,7.80
2019-04-12T12:00:49.986Z,8.40
2019-04-12T12:01:50.103Z,9.10
2019-04-12T12:02:50.231Z,8.40
2019-04-12T12:03:50.362Z,9.00
2019-04-12T12:04:50.482Z,9.10
2019-04-12T12:05:50.633Z,8.40
2019-04-12T12:06:50.787Z,8.90
2019-04-12T12:07:50.907Z,8.80
2019-04-12T12:08:51.042Z,8.90
2019-04-12T12:09:51.178Z,9.60
2019-04-12T12:10:51.300Z,9.40
2019-04-12T12:11:51.428Z,9.10
2019-04-12T12:12:51.555Z,8.80
2019-04-12T12:13:51.679Z,8.80
2019-04-12T12:14:51.813Z,9.50
2019-04-12T12:15:51.940Z,9.30
2019-04-12T12:16:52.064Z,9.60
2019-04-12T12:17:52.202Z,9.60
2019-04-12T12:18:52.333Z,9.80
2019-04-12T12:19:52.484Z,9.50
2019-04-12T12:20:52.599Z,9.70
2019-04-12T12:21:52.739Z,10.00
2019-04-12T12:22:52.850Z,10.00
2019-04-12T12:23:52.994Z,9.90
2019-04-12T12:24:53.130Z,8.80
2019-04-12T12:25:53.283Z,9.80
2019-04-12T12:26:53.380Z,8.70
2019-04-12T12:27:53.510Z,8.50
2019-04-12T12:28:53.665Z,8.10
2019-04-12T12:29:53.828Z,8.50
2019-04-12T12:30:53.953Z,8.70
2019-04-12T12:31:54.075Z,8.80
2019-04-12T12:32:54.200Z,8.40
2019-04-12T12:33:54.330Z,8.80
2019-04-12T12:34:54.448Z,9.10
2019-04-12T12:35:54.627Z,8.90
2019-04-12T12:36:54.733Z,8.70
2019-04-12T12:37:54.852Z,8.70
2019-04-12T12:38:54.979Z,8.00
2019-04-12T12:39:55.126Z,8.50
2019-04-12T12:40:55.249Z,8.30
2019-04-12T12:41:55.383Z,9.20
2019-04-12T12:42:55.498Z,9.10
2019-04-12T12:43:55.632Z,8.70
2019-04-12T12:44:55.777Z,8.90
2019-04-12T12:45:55.886Z,8.80
2019-04-12T12:46:56.022Z,9.40
2019-04-12T12:47:56.135Z,9.70
2019-04-12T12:48:56.257Z,11.30
2019-04-12T12:49:56.389Z,10.30
2019-04-12T12:50:56.526Z,10.10
2019-04-12T12:51:56.658Z,10.50
2019-04-12T12:52:56.785Z,10.20
2019-04-12T12:53:56.902Z,10.60
2019-04-12T12:54:57.038Z,10.20
2019-04-12T12:55:57.161Z,10.60
2019-04-12T12:56:57.291Z,10.50
2019-04-12T12:57:57.415Z,10.80
2019-04-12T12:58:57.549Z,11.30
2019-04-12T12:59:57.673Z,11.70
2019-04-12T13:00:57.805Z,12.10
2019-04-12T13:01:57.934Z,12.30
2019-04-12T13:02:58.055Z,12.90
2019-04-12T13:03:58.177Z,14.40
2019-04-12T13:04:58.313Z,13.40
2019-04-12T13:06:01.877Z,12.20
2019-04-12T13:06:58.545Z,12.10
2019-04-12T13:07:58.683Z,11.20
2019-04-12T13:08:58.807Z,12.80
2019-04-12T13:09:58.959Z,12.30
2019-04-12T13:10:59.050Z,11.30
2019-04-12T13:11:59.204Z,11.10
2019-04-12T13:12:59.314Z,10.40
2019-04-12T13:13:59.425Z,10.70
2019-04-12T13:14:59.554Z,11.20
2019-04-12T13:15:59.686Z,11.20
2019-04-12T13:16:59.829Z,11.10
2019-04-12T13:17:59.958Z,10.70